<?xml version="1.0" encoding="UTF-8" standalone="no" ?>
<gpx xmlns="http://www.topografix.com/GPX/1/1" xmlns:xsi="http://www.w3.org/2001/XMLSchema-instance" xsi:schemaLocation="http://www.topografix.com/GPX/1/1 http://www.topografix.com/GPX/1/1/gpx.xsd" version="1.1" creator="VisuGPX - https://www.visugpx.com">
  <metadata>
    <name>012 Fondremand (Source de La Romaine - Gy (croisée des chemins)</name>
    <desc><![CDATA[

]]></desc>
  </metadata>
  <trk>
    <name><![CDATA[012 Fondremand (Source de La Romaine - Gy (croisée des chemins)]]></name>
    <extensions>
      <line xmlns="http://www.topografix.com/GPX/gpx_style/0/2">
        <color>000088</color>
        <width>4</width>
      </line>
    </extensions>
    <trkseg>
      <trkpt lat="47.47559" lon="6.02491">
        <ele>263</ele>
        <time>2023-03-15T22:12:16.000Z</time>
      </trkpt>
      <trkpt lat="47.47563" lon="6.02469">
        <ele>262</ele>
        <time>2023-03-15T22:12:16.020Z</time>
      </trkpt>
      <trkpt lat="47.47566" lon="6.02452">
        <ele>261</ele>
        <time>2023-03-15T22:12:16.056Z</time>
      </trkpt>
      <trkpt lat="47.47575" lon="6.02434">
        <ele>260</ele>
        <time>2023-03-15T22:12:16.112Z</time>
      </trkpt>
      <trkpt lat="47.47586" lon="6.02427">
        <ele>260</ele>
        <time>2023-03-15T22:12:16.184Z</time>
      </trkpt>
      <trkpt lat="47.47592" lon="6.02421">
        <ele>260</ele>
        <time>2023-03-15T22:12:16.266Z</time>
      </trkpt>
      <trkpt lat="47.47587" lon="6.02405">
        <ele>260</ele>
        <time>2023-03-15T22:12:16.364Z</time>
      </trkpt>
      <trkpt lat="47.47579" lon="6.02405">
        <ele>260</ele>
        <time>2023-03-15T22:12:16.473Z</time>
      </trkpt>
      <trkpt lat="47.47546" lon="6.02396">
        <ele>260</ele>
        <time>2023-03-15T22:12:16.626Z</time>
      </trkpt>
      <trkpt lat="47.47533" lon="6.02381">
        <ele>261</ele>
        <time>2023-03-15T22:12:16.801Z</time>
      </trkpt>
      <trkpt lat="47.47565" lon="6.02345">
        <ele>262</ele>
        <time>2023-03-15T22:12:17.030Z</time>
      </trkpt>
      <trkpt lat="47.47598" lon="6.02291">
        <ele>263</ele>
        <time>2023-03-15T22:12:17.325Z</time>
      </trkpt>
      <trkpt lat="47.47632" lon="6.02235">
        <ele>263</ele>
        <time>2023-03-15T22:12:17.689Z</time>
      </trkpt>
      <trkpt lat="47.47658" lon="6.02198">
        <ele>264</ele>
        <time>2023-03-15T22:12:18.100Z</time>
      </trkpt>
      <trkpt lat="47.47714" lon="6.02122">
        <ele>264</ele>
        <time>2023-03-15T22:12:18.614Z</time>
      </trkpt>
      <trkpt lat="47.4776" lon="6.02086">
        <ele>265</ele>
        <time>2023-03-15T22:12:19.197Z</time>
      </trkpt>
      <trkpt lat="47.478" lon="6.02073">
        <ele>266</ele>
        <time>2023-03-15T22:12:19.834Z</time>
      </trkpt>
      <trkpt lat="47.47873" lon="6.02064">
        <ele>266</ele>
        <time>2023-03-15T22:12:20.569Z</time>
      </trkpt>
      <trkpt lat="47.47902" lon="6.0205">
        <ele>266</ele>
        <time>2023-03-15T22:12:21.345Z</time>
      </trkpt>
      <trkpt lat="47.47916" lon="6.02029">
        <ele>266</ele>
        <time>2023-03-15T22:12:22.147Z</time>
      </trkpt>
      <trkpt lat="47.47934" lon="6.01992">
        <ele>267</ele>
        <time>2023-03-15T22:12:22.991Z</time>
      </trkpt>
      <trkpt lat="47.47966" lon="6.01924">
        <ele>267</ele>
        <time>2023-03-15T22:12:23.909Z</time>
      </trkpt>
      <trkpt lat="47.48008" lon="6.01868">
        <ele>268</ele>
        <time>2023-03-15T22:12:24.902Z</time>
      </trkpt>
      <trkpt lat="47.48054" lon="6.01807">
        <ele>268</ele>
        <time>2023-03-15T22:12:25.978Z</time>
      </trkpt>
      <trkpt lat="47.4811" lon="6.01735">
        <ele>269</ele>
        <time>2023-03-15T22:12:27.154Z</time>
      </trkpt>
      <trkpt lat="47.48163" lon="6.01692">
        <ele>270</ele>
        <time>2023-03-15T22:12:28.410Z</time>
      </trkpt>
      <trkpt lat="47.48204" lon="6.01667">
        <ele>270</ele>
        <time>2023-03-15T22:12:29.726Z</time>
      </trkpt>
      <trkpt lat="47.48301" lon="6.01653">
        <ele>270</ele>
        <time>2023-03-15T22:12:31.171Z</time>
      </trkpt>
      <trkpt lat="47.48372" lon="6.0165">
        <ele>270</ele>
        <time>2023-03-15T22:12:32.711Z</time>
      </trkpt>
      <trkpt lat="47.48447" lon="6.01648">
        <ele>271</ele>
        <time>2023-03-15T22:12:34.351Z</time>
      </trkpt>
      <trkpt lat="47.48519" lon="6.01637">
        <ele>270</ele>
        <time>2023-03-15T22:12:36.088Z</time>
      </trkpt>
      <trkpt lat="47.48548" lon="6.01651">
        <ele>269</ele>
        <time>2023-03-15T22:12:37.866Z</time>
      </trkpt>
      <trkpt lat="47.486" lon="6.01691">
        <ele>269</ele>
        <time>2023-03-15T22:12:39.722Z</time>
      </trkpt>
      <trkpt lat="47.48615" lon="6.01704">
        <ele>267</ele>
        <time>2023-03-15T22:12:41.602Z</time>
      </trkpt>
      <trkpt lat="47.48686" lon="6.01735">
        <ele>266</ele>
        <time>2023-03-15T22:12:43.580Z</time>
      </trkpt>
      <trkpt lat="47.48762" lon="6.01742">
        <ele>264</ele>
        <time>2023-03-15T22:12:45.659Z</time>
      </trkpt>
      <trkpt lat="47.48814" lon="6.01739">
        <ele>262</ele>
        <time>2023-03-15T22:12:47.808Z</time>
      </trkpt>
      <trkpt lat="47.48852" lon="6.01736">
        <ele>261</ele>
        <time>2023-03-15T22:12:50.007Z</time>
      </trkpt>
      <trkpt lat="47.48926" lon="6.01704">
        <ele>258</ele>
        <time>2023-03-15T22:12:52.310Z</time>
      </trkpt>
      <trkpt lat="47.48969" lon="6.01651">
        <ele>256</ele>
        <time>2023-03-15T22:12:54.687Z</time>
      </trkpt>
      <trkpt lat="47.49006" lon="6.0155">
        <ele>255</ele>
        <time>2023-03-15T22:12:57.168Z</time>
      </trkpt>
      <trkpt lat="47.49042" lon="6.0147">
        <ele>254</ele>
        <time>2023-03-15T22:12:59.736Z</time>
      </trkpt>
      <trkpt lat="47.49095" lon="6.01435">
        <ele>253</ele>
        <time>2023-03-15T22:13:02.381Z</time>
      </trkpt>
      <trkpt lat="47.49165" lon="6.01406">
        <ele>253</ele>
        <time>2023-03-15T22:13:05.123Z</time>
      </trkpt>
      <trkpt lat="47.49158" lon="6.01202">
        <ele>252</ele>
        <time>2023-03-15T22:13:08.050Z</time>
      </trkpt>
      <trkpt lat="47.49229" lon="6.01151">
        <ele>253</ele>
        <time>2023-03-15T22:13:11.082Z</time>
      </trkpt>
      <trkpt lat="47.49231" lon="6.01112">
        <ele>255</ele>
        <time>2023-03-15T22:13:14.149Z</time>
      </trkpt>
      <trkpt lat="47.49204" lon="6.01016">
        <ele>258</ele>
        <time>2023-03-15T22:13:17.310Z</time>
      </trkpt>
      <trkpt lat="47.49224" lon="6.00913">
        <ele>261</ele>
        <time>2023-03-15T22:13:20.568Z</time>
      </trkpt>
      <trkpt lat="47.49187" lon="6.00804">
        <ele>266</ele>
        <time>2023-03-15T22:13:23.937Z</time>
      </trkpt>
      <trkpt lat="47.4919" lon="6.00761">
        <ele>272</ele>
        <time>2023-03-15T22:13:27.345Z</time>
      </trkpt>
      <trkpt lat="47.49184" lon="6.00694">
        <ele>277</ele>
        <time>2023-03-15T22:13:30.814Z</time>
      </trkpt>
      <trkpt lat="47.49147" lon="6.00608">
        <ele>284</ele>
        <time>2023-03-15T22:13:34.375Z</time>
      </trkpt>
      <trkpt lat="47.49113" lon="6.00557">
        <ele>290</ele>
        <time>2023-03-15T22:13:38.000Z</time>
      </trkpt>
      <trkpt lat="47.49014" lon="6.00396">
        <ele>299</ele>
        <time>2023-03-15T22:13:41.822Z</time>
      </trkpt>
      <trkpt lat="47.48986" lon="6.00332">
        <ele>305</ele>
        <time>2023-03-15T22:13:45.713Z</time>
      </trkpt>
      <trkpt lat="47.48979" lon="6.003">
        <ele>311</ele>
        <time>2023-03-15T22:13:49.635Z</time>
      </trkpt>
      <trkpt lat="47.4897" lon="6.00268">
        <ele>316</ele>
        <time>2023-03-15T22:13:53.588Z</time>
      </trkpt>
      <trkpt lat="47.4894" lon="6.0022">
        <ele>321</ele>
        <time>2023-03-15T22:13:57.600Z</time>
      </trkpt>
      <trkpt lat="47.48921" lon="6.0017">
        <ele>324</ele>
        <time>2023-03-15T22:14:01.664Z</time>
      </trkpt>
      <trkpt lat="47.48901" lon="6.00089">
        <ele>327</ele>
        <time>2023-03-15T22:14:05.805Z</time>
      </trkpt>
      <trkpt lat="47.4889" lon="5.99964">
        <ele>329</ele>
        <time>2023-03-15T22:14:10.061Z</time>
      </trkpt>
      <trkpt lat="47.48894" lon="5.99876">
        <ele>329</ele>
        <time>2023-03-15T22:14:14.396Z</time>
      </trkpt>
      <trkpt lat="47.48926" lon="5.99704">
        <ele>328</ele>
        <time>2023-03-15T22:14:18.892Z</time>
      </trkpt>
      <trkpt lat="47.48973" lon="5.99497">
        <ele>325</ele>
        <time>2023-03-15T22:14:23.586Z</time>
      </trkpt>
      <trkpt lat="47.49019" lon="5.99442">
        <ele>322</ele>
        <time>2023-03-15T22:14:28.359Z</time>
      </trkpt>
      <trkpt lat="47.49074" lon="5.99387">
        <ele>318</ele>
        <time>2023-03-15T22:14:33.221Z</time>
      </trkpt>
      <trkpt lat="47.49093" lon="5.99364">
        <ele>314</ele>
        <time>2023-03-15T22:14:38.115Z</time>
      </trkpt>
      <trkpt lat="47.49099" lon="5.99331">
        <ele>309</ele>
        <time>2023-03-15T22:14:43.041Z</time>
      </trkpt>
      <trkpt lat="47.49146" lon="5.99241">
        <ele>304</ele>
        <time>2023-03-15T22:14:48.069Z</time>
      </trkpt>
      <trkpt lat="47.49259" lon="5.99051">
        <ele>294</ele>
        <time>2023-03-15T22:14:53.326Z</time>
      </trkpt>
      <trkpt lat="47.49203" lon="5.99013">
        <ele>290</ele>
        <time>2023-03-15T22:14:58.665Z</time>
      </trkpt>
      <trkpt lat="47.49087" lon="5.98793">
        <ele>285</ele>
        <time>2023-03-15T22:15:04.257Z</time>
      </trkpt>
      <trkpt lat="47.48938" lon="5.9854">
        <ele>281</ele>
        <time>2023-03-15T22:15:10.151Z</time>
      </trkpt>
      <trkpt lat="47.48834" lon="5.98364">
        <ele>278</ele>
        <time>2023-03-15T22:15:16.256Z</time>
      </trkpt>
      <trkpt lat="47.48842" lon="5.98333">
        <ele>277</ele>
        <time>2023-03-15T22:15:22.391Z</time>
      </trkpt>
      <trkpt lat="47.48858" lon="5.98291">
        <ele>277</ele>
        <time>2023-03-15T22:15:28.569Z</time>
      </trkpt>
      <trkpt lat="47.48847" lon="5.98264">
        <ele>278</ele>
        <time>2023-03-15T22:15:34.776Z</time>
      </trkpt>
      <trkpt lat="47.48821" lon="5.98225">
        <ele>279</ele>
        <time>2023-03-15T22:15:41.032Z</time>
      </trkpt>
      <trkpt lat="47.48709" lon="5.98063">
        <ele>282</ele>
        <time>2023-03-15T22:15:47.498Z</time>
      </trkpt>
      <trkpt lat="47.4866" lon="5.97979">
        <ele>284</ele>
        <time>2023-03-15T22:15:54.064Z</time>
      </trkpt>
      <trkpt lat="47.48627" lon="5.97921">
        <ele>289</ele>
        <time>2023-03-15T22:16:00.698Z</time>
      </trkpt>
      <trkpt lat="47.48568" lon="5.97858">
        <ele>294</ele>
        <time>2023-03-15T22:16:07.429Z</time>
      </trkpt>
      <trkpt lat="47.4838" lon="5.97684">
        <ele>300</ele>
        <time>2023-03-15T22:16:14.456Z</time>
      </trkpt>
      <trkpt lat="47.48239" lon="5.97587">
        <ele>307</ele>
        <time>2023-03-15T22:16:21.691Z</time>
      </trkpt>
      <trkpt lat="47.4819" lon="5.97551">
        <ele>313</ele>
        <time>2023-03-15T22:16:28.999Z</time>
      </trkpt>
      <trkpt lat="47.48153" lon="5.9751">
        <ele>319</ele>
        <time>2023-03-15T22:16:36.368Z</time>
      </trkpt>
      <trkpt lat="47.48104" lon="5.97459">
        <ele>325</ele>
        <time>2023-03-15T22:16:43.818Z</time>
      </trkpt>
      <trkpt lat="47.48029" lon="5.97377">
        <ele>332</ele>
        <time>2023-03-15T22:16:51.392Z</time>
      </trkpt>
      <trkpt lat="47.47983" lon="5.97382">
        <ele>337</ele>
        <time>2023-03-15T22:16:59.027Z</time>
      </trkpt>
      <trkpt lat="47.47947" lon="5.97406">
        <ele>342</ele>
        <time>2023-03-15T22:17:06.716Z</time>
      </trkpt>
      <trkpt lat="47.47782" lon="5.97572">
        <ele>349</ele>
        <time>2023-03-15T22:17:14.671Z</time>
      </trkpt>
      <trkpt lat="47.4769" lon="5.97674">
        <ele>354</ele>
        <time>2023-03-15T22:17:22.780Z</time>
      </trkpt>
      <trkpt lat="47.47632" lon="5.9772">
        <ele>358</ele>
        <time>2023-03-15T22:17:30.976Z</time>
      </trkpt>
      <trkpt lat="47.47585" lon="5.97655">
        <ele>361</ele>
        <time>2023-03-15T22:17:39.259Z</time>
      </trkpt>
      <trkpt lat="47.4759" lon="5.9755">
        <ele>364</ele>
        <time>2023-03-15T22:17:47.637Z</time>
      </trkpt>
      <trkpt lat="47.47613" lon="5.97428">
        <ele>367</ele>
        <time>2023-03-15T22:17:56.130Z</time>
      </trkpt>
      <trkpt lat="47.47623" lon="5.97362">
        <ele>369</ele>
        <time>2023-03-15T22:18:04.684Z</time>
      </trkpt>
      <trkpt lat="47.47616" lon="5.97349">
        <ele>371</ele>
        <time>2023-03-15T22:18:13.253Z</time>
      </trkpt>
      <trkpt lat="47.47278" lon="5.96987">
        <ele>374</ele>
        <time>2023-03-15T22:18:22.379Z</time>
      </trkpt>
      <trkpt lat="47.47202" lon="5.96905">
        <ele>376</ele>
        <time>2023-03-15T22:18:31.631Z</time>
      </trkpt>
      <trkpt lat="47.47186" lon="5.96877">
        <ele>378</ele>
        <time>2023-03-15T22:18:40.916Z</time>
      </trkpt>
      <trkpt lat="47.47114" lon="5.96678">
        <ele>380</ele>
        <time>2023-03-15T22:18:50.405Z</time>
      </trkpt>
      <trkpt lat="47.47104" lon="5.96637">
        <ele>381</ele>
        <time>2023-03-15T22:18:59.934Z</time>
      </trkpt>
      <trkpt lat="47.47097" lon="5.96609">
        <ele>381</ele>
        <time>2023-03-15T22:19:09.490Z</time>
      </trkpt>
      <trkpt lat="47.47012" lon="5.96345">
        <ele>380</ele>
        <time>2023-03-15T22:19:19.310Z</time>
      </trkpt>
      <trkpt lat="47.46983" lon="5.96276">
        <ele>379</ele>
        <time>2023-03-15T22:19:29.203Z</time>
      </trkpt>
      <trkpt lat="47.4695" lon="5.96213">
        <ele>377</ele>
        <time>2023-03-15T22:19:39.168Z</time>
      </trkpt>
      <trkpt lat="47.46898" lon="5.96155">
        <ele>375</ele>
        <time>2023-03-15T22:19:49.220Z</time>
      </trkpt>
      <trkpt lat="47.4687" lon="5.96115">
        <ele>372</ele>
        <time>2023-03-15T22:19:59.324Z</time>
      </trkpt>
      <trkpt lat="47.46816" lon="5.9604">
        <ele>369</ele>
        <time>2023-03-15T22:20:09.528Z</time>
      </trkpt>
      <trkpt lat="47.4677" lon="5.95974">
        <ele>365</ele>
        <time>2023-03-15T22:20:19.817Z</time>
      </trkpt>
      <trkpt lat="47.4674" lon="5.95925">
        <ele>362</ele>
        <time>2023-03-15T22:20:30.166Z</time>
      </trkpt>
      <trkpt lat="47.46717" lon="5.95865">
        <ele>359</ele>
        <time>2023-03-15T22:20:40.577Z</time>
      </trkpt>
      <trkpt lat="47.46699" lon="5.95817">
        <ele>356</ele>
        <time>2023-03-15T22:20:51.038Z</time>
      </trkpt>
      <trkpt lat="47.46689" lon="5.95787">
        <ele>350</ele>
        <time>2023-03-15T22:21:01.529Z</time>
      </trkpt>
      <trkpt lat="47.46688" lon="5.95778">
        <ele>347</ele>
        <time>2023-03-15T22:21:12.028Z</time>
      </trkpt>
      <trkpt lat="47.46697" lon="5.95765">
        <ele>344</ele>
        <time>2023-03-15T22:21:22.544Z</time>
      </trkpt>
      <trkpt lat="47.46715" lon="5.95766">
        <ele>340</ele>
        <time>2023-03-15T22:21:33.085Z</time>
      </trkpt>
      <trkpt lat="47.46743" lon="5.95773">
        <ele>337</ele>
        <time>2023-03-15T22:21:43.664Z</time>
      </trkpt>
      <trkpt lat="47.46763" lon="5.95759">
        <ele>333</ele>
        <time>2023-03-15T22:21:54.271Z</time>
      </trkpt>
      <trkpt lat="47.4677" lon="5.95739">
        <ele>330</ele>
        <time>2023-03-15T22:22:04.899Z</time>
      </trkpt>
      <trkpt lat="47.46772" lon="5.95704">
        <ele>325</ele>
        <time>2023-03-15T22:22:15.559Z</time>
      </trkpt>
      <trkpt lat="47.46775" lon="5.95648">
        <ele>320</ele>
        <time>2023-03-15T22:22:26.270Z</time>
      </trkpt>
      <trkpt lat="47.4678" lon="5.9558">
        <ele>315</ele>
        <time>2023-03-15T22:22:37.043Z</time>
      </trkpt>
      <trkpt lat="47.46786" lon="5.95516">
        <ele>310</ele>
        <time>2023-03-15T22:22:47.874Z</time>
      </trkpt>
      <trkpt lat="47.46787" lon="5.95457">
        <ele>305</ele>
        <time>2023-03-15T22:22:58.759Z</time>
      </trkpt>
      <trkpt lat="47.46799" lon="5.95414">
        <ele>300</ele>
        <time>2023-03-15T22:23:09.686Z</time>
      </trkpt>
      <trkpt lat="47.46818" lon="5.95386">
        <ele>294</ele>
        <time>2023-03-15T22:23:20.649Z</time>
      </trkpt>
      <trkpt lat="47.46828" lon="5.95347">
        <ele>289</ele>
        <time>2023-03-15T22:23:31.650Z</time>
      </trkpt>
      <trkpt lat="47.46845" lon="5.95256">
        <ele>284</ele>
        <time>2023-03-15T22:23:42.736Z</time>
      </trkpt>
      <trkpt lat="47.46854" lon="5.95068">
        <ele>280</ele>
        <time>2023-03-15T22:23:53.992Z</time>
      </trkpt>
      <trkpt lat="47.4684" lon="5.94963">
        <ele>276</ele>
        <time>2023-03-15T22:24:05.345Z</time>
      </trkpt>
      <trkpt lat="47.46807" lon="5.9484">
        <ele>272</ele>
        <time>2023-03-15T22:24:16.818Z</time>
      </trkpt>
      <trkpt lat="47.46788" lon="5.94744">
        <ele>269</ele>
        <time>2023-03-15T22:24:28.381Z</time>
      </trkpt>
      <trkpt lat="47.46794" lon="5.94712">
        <ele>268</ele>
        <time>2023-03-15T22:24:39.974Z</time>
      </trkpt>
      <trkpt lat="47.46834" lon="5.94615">
        <ele>267</ele>
        <time>2023-03-15T22:24:51.670Z</time>
      </trkpt>
      <trkpt lat="47.46841" lon="5.94578">
        <ele>267</ele>
        <time>2023-03-15T22:25:03.401Z</time>
      </trkpt>
      <trkpt lat="47.46834" lon="5.94514">
        <ele>268</ele>
        <time>2023-03-15T22:25:15.190Z</time>
      </trkpt>
      <trkpt lat="47.4667" lon="5.94558">
        <ele>271</ele>
        <time>2023-03-15T22:25:27.201Z</time>
      </trkpt>
      <trkpt lat="47.46606" lon="5.94537">
        <ele>274</ele>
        <time>2023-03-15T22:25:39.300Z</time>
      </trkpt>
      <trkpt lat="47.46563" lon="5.94521">
        <ele>278</ele>
        <time>2023-03-15T22:25:51.458Z</time>
      </trkpt>
      <trkpt lat="47.46514" lon="5.94502">
        <ele>281</ele>
        <time>2023-03-15T22:26:03.683Z</time>
      </trkpt>
      <trkpt lat="47.46486" lon="5.94486">
        <ele>285</ele>
        <time>2023-03-15T22:26:15.948Z</time>
      </trkpt>
      <trkpt lat="47.46476" lon="5.94476">
        <ele>290</ele>
        <time>2023-03-15T22:26:28.229Z</time>
      </trkpt>
      <trkpt lat="47.46474" lon="5.94465">
        <ele>294</ele>
        <time>2023-03-15T22:26:40.521Z</time>
      </trkpt>
      <trkpt lat="47.46475" lon="5.94452">
        <ele>299</ele>
        <time>2023-03-15T22:26:52.825Z</time>
      </trkpt>
      <trkpt lat="47.46478" lon="5.94434">
        <ele>304</ele>
        <time>2023-03-15T22:27:05.145Z</time>
      </trkpt>
      <trkpt lat="47.46483" lon="5.94415">
        <ele>309</ele>
        <time>2023-03-15T22:27:17.484Z</time>
      </trkpt>
      <trkpt lat="47.46488" lon="5.94391">
        <ele>314</ele>
        <time>2023-03-15T22:27:29.846Z</time>
      </trkpt>
      <trkpt lat="47.46492" lon="5.94373">
        <ele>319</ele>
        <time>2023-03-15T22:27:42.225Z</time>
      </trkpt>
      <trkpt lat="47.46488" lon="5.94327">
        <ele>324</ele>
        <time>2023-03-15T22:27:54.646Z</time>
      </trkpt>
      <trkpt lat="47.46489" lon="5.94281">
        <ele>329</ele>
        <time>2023-03-15T22:28:07.108Z</time>
      </trkpt>
      <trkpt lat="47.46491" lon="5.94258">
        <ele>333</ele>
        <time>2023-03-15T22:28:19.591Z</time>
      </trkpt>
      <trkpt lat="47.46488" lon="5.94225">
        <ele>337</ele>
        <time>2023-03-15T22:28:32.105Z</time>
      </trkpt>
      <trkpt lat="47.46486" lon="5.94205">
        <ele>341</ele>
        <time>2023-03-15T22:28:44.637Z</time>
      </trkpt>
      <trkpt lat="47.4648" lon="5.94188">
        <ele>344</ele>
        <time>2023-03-15T22:28:57.186Z</time>
      </trkpt>
      <trkpt lat="47.46451" lon="5.94195">
        <ele>348</ele>
        <time>2023-03-15T22:29:09.774Z</time>
      </trkpt>
      <trkpt lat="47.4641" lon="5.94201">
        <ele>350</ele>
        <time>2023-03-15T22:29:22.417Z</time>
      </trkpt>
      <trkpt lat="47.46339" lon="5.94208">
        <ele>353</ele>
        <time>2023-03-15T22:29:35.154Z</time>
      </trkpt>
      <trkpt lat="47.46245" lon="5.94202">
        <ele>356</ele>
        <time>2023-03-15T22:29:48.018Z</time>
      </trkpt>
      <trkpt lat="47.462" lon="5.9421">
        <ele>359</ele>
        <time>2023-03-15T22:30:00.942Z</time>
      </trkpt>
      <trkpt lat="47.46145" lon="5.9421">
        <ele>361</ele>
        <time>2023-03-15T22:30:13.939Z</time>
      </trkpt>
      <trkpt lat="47.46111" lon="5.94196">
        <ele>364</ele>
        <time>2023-03-15T22:30:26.983Z</time>
      </trkpt>
      <trkpt lat="47.4609" lon="5.94183">
        <ele>366</ele>
        <time>2023-03-15T22:30:40.058Z</time>
      </trkpt>
      <trkpt lat="47.46086" lon="5.94159">
        <ele>369</ele>
        <time>2023-03-15T22:30:53.155Z</time>
      </trkpt>
      <trkpt lat="47.4609" lon="5.94137">
        <ele>372</ele>
        <time>2023-03-15T22:31:06.273Z</time>
      </trkpt>
      <trkpt lat="47.46114" lon="5.94083">
        <ele>374</ele>
        <time>2023-03-15T22:31:19.449Z</time>
      </trkpt>
      <trkpt lat="47.46159" lon="5.93983">
        <ele>378</ele>
        <time>2023-03-15T22:31:32.734Z</time>
      </trkpt>
      <trkpt lat="47.46179" lon="5.93934">
        <ele>380</ele>
        <time>2023-03-15T22:31:46.071Z</time>
      </trkpt>
      <trkpt lat="47.46212" lon="5.93864">
        <ele>381</ele>
        <time>2023-03-15T22:31:59.485Z</time>
      </trkpt>
      <trkpt lat="47.46208" lon="5.93834">
        <ele>383</ele>
        <time>2023-03-15T22:32:12.926Z</time>
      </trkpt>
      <trkpt lat="47.46164" lon="5.93774">
        <ele>384</ele>
        <time>2023-03-15T22:32:26.447Z</time>
      </trkpt>
      <trkpt lat="47.46114" lon="5.93715">
        <ele>385</ele>
        <time>2023-03-15T22:32:40.053Z</time>
      </trkpt>
      <trkpt lat="47.46064" lon="5.93643">
        <ele>385</ele>
        <time>2023-03-15T22:32:53.753Z</time>
      </trkpt>
      <trkpt lat="47.4603" lon="5.93592">
        <ele>385</ele>
        <time>2023-03-15T22:33:07.517Z</time>
      </trkpt>
      <trkpt lat="47.45982" lon="5.93544">
        <ele>385</ele>
        <time>2023-03-15T22:33:21.359Z</time>
      </trkpt>
      <trkpt lat="47.45966" lon="5.9353">
        <ele>384</ele>
        <time>2023-03-15T22:33:35.225Z</time>
      </trkpt>
      <trkpt lat="47.4596" lon="5.93514">
        <ele>383</ele>
        <time>2023-03-15T22:33:49.109Z</time>
      </trkpt>
      <trkpt lat="47.45956" lon="5.93494">
        <ele>382</ele>
        <time>2023-03-15T22:34:03.011Z</time>
      </trkpt>
      <trkpt lat="47.45956" lon="5.93474">
        <ele>380</ele>
        <time>2023-03-15T22:34:16.931Z</time>
      </trkpt>
      <trkpt lat="47.45963" lon="5.93444">
        <ele>378</ele>
        <time>2023-03-15T22:34:30.879Z</time>
      </trkpt>
      <trkpt lat="47.45957" lon="5.93417">
        <ele>377</ele>
        <time>2023-03-15T22:34:44.853Z</time>
      </trkpt>
      <trkpt lat="47.45888" lon="5.93354">
        <ele>375</ele>
        <time>2023-03-15T22:34:58.935Z</time>
      </trkpt>
      <trkpt lat="47.45831" lon="5.93298">
        <ele>373</ele>
        <time>2023-03-15T22:35:13.109Z</time>
      </trkpt>
      <trkpt lat="47.4577" lon="5.93233">
        <ele>370</ele>
        <time>2023-03-15T22:35:27.383Z</time>
      </trkpt>
      <trkpt lat="47.457" lon="5.93161">
        <ele>369</ele>
        <time>2023-03-15T22:35:41.771Z</time>
      </trkpt>
      <trkpt lat="47.45666" lon="5.9312">
        <ele>368</ele>
        <time>2023-03-15T22:35:56.217Z</time>
      </trkpt>
      <trkpt lat="47.45527" lon="5.92976">
        <ele>368</ele>
        <time>2023-03-15T22:36:10.890Z</time>
      </trkpt>
      <trkpt lat="47.45451" lon="5.92896">
        <ele>367</ele>
        <time>2023-03-15T22:36:25.688Z</time>
      </trkpt>
      <trkpt lat="47.45396" lon="5.92842">
        <ele>368</ele>
        <time>2023-03-15T22:36:40.574Z</time>
      </trkpt>
      <trkpt lat="47.45342" lon="5.92781">
        <ele>368</ele>
        <time>2023-03-15T22:36:55.550Z</time>
      </trkpt>
      <trkpt lat="47.4528" lon="5.92715">
        <ele>369</ele>
        <time>2023-03-15T22:37:10.629Z</time>
      </trkpt>
      <trkpt lat="47.4519" lon="5.92623">
        <ele>371</ele>
        <time>2023-03-15T22:37:25.854Z</time>
      </trkpt>
      <trkpt lat="47.45167" lon="5.92594">
        <ele>372</ele>
        <time>2023-03-15T22:37:41.120Z</time>
      </trkpt>
      <trkpt lat="47.45131" lon="5.9255">
        <ele>374</ele>
        <time>2023-03-15T22:37:56.448Z</time>
      </trkpt>
      <trkpt lat="47.4509" lon="5.92503">
        <ele>375</ele>
        <time>2023-03-15T22:38:11.845Z</time>
      </trkpt>
      <trkpt lat="47.45006" lon="5.92382">
        <ele>377</ele>
        <time>2023-03-15T22:38:27.398Z</time>
      </trkpt>
      <trkpt lat="47.44931" lon="5.92302">
        <ele>378</ele>
        <time>2023-03-15T22:38:43.075Z</time>
      </trkpt>
      <trkpt lat="47.44895" lon="5.9225">
        <ele>379</ele>
        <time>2023-03-15T22:38:58.819Z</time>
      </trkpt>
      <trkpt lat="47.44883" lon="5.92208">
        <ele>379</ele>
        <time>2023-03-15T22:39:14.605Z</time>
      </trkpt>
      <trkpt lat="47.4488" lon="5.92165">
        <ele>379</ele>
        <time>2023-03-15T22:39:30.430Z</time>
      </trkpt>
      <trkpt lat="47.44872" lon="5.92143">
        <ele>379</ele>
        <time>2023-03-15T22:39:46.277Z</time>
      </trkpt>
      <trkpt lat="47.44866" lon="5.92139">
        <ele>379</ele>
        <time>2023-03-15T22:40:02.132Z</time>
      </trkpt>
      <trkpt lat="47.44802" lon="5.92136">
        <ele>379</ele>
        <time>2023-03-15T22:40:18.074Z</time>
      </trkpt>
      <trkpt lat="47.44747" lon="5.92104">
        <ele>378</ele>
        <time>2023-03-15T22:40:34.094Z</time>
      </trkpt>
      <trkpt lat="47.44711" lon="5.92091">
        <ele>378</ele>
        <time>2023-03-15T22:40:50.164Z</time>
      </trkpt>
      <trkpt lat="47.44696" lon="5.92078">
        <ele>377</ele>
        <time>2023-03-15T22:41:06.257Z</time>
      </trkpt>
      <trkpt lat="47.44689" lon="5.9205">
        <ele>377</ele>
        <time>2023-03-15T22:41:22.377Z</time>
      </trkpt>
      <trkpt lat="47.44648" lon="5.91978">
        <ele>375</ele>
        <time>2023-03-15T22:41:38.582Z</time>
      </trkpt>
      <trkpt lat="47.44616" lon="5.91919">
        <ele>375</ele>
        <time>2023-03-15T22:41:54.855Z</time>
      </trkpt>
      <trkpt lat="47.44574" lon="5.91838">
        <ele>374</ele>
        <time>2023-03-15T22:42:11.220Z</time>
      </trkpt>
      <trkpt lat="47.44525" lon="5.91743">
        <ele>373</ele>
        <time>2023-03-15T22:42:27.694Z</time>
      </trkpt>
      <trkpt lat="47.44486" lon="5.91717">
        <ele>372</ele>
        <time>2023-03-15T22:42:44.224Z</time>
      </trkpt>
      <trkpt lat="47.44449" lon="5.91693">
        <ele>372</ele>
        <time>2023-03-15T22:43:00.809Z</time>
      </trkpt>
      <trkpt lat="47.44378" lon="5.91651">
        <ele>373</ele>
        <time>2023-03-15T22:43:17.495Z</time>
      </trkpt>
      <trkpt lat="47.44308" lon="5.91587">
        <ele>373</ele>
        <time>2023-03-15T22:43:34.291Z</time>
      </trkpt>
      <trkpt lat="47.44227" lon="5.91491">
        <ele>374</ele>
        <time>2023-03-15T22:43:51.226Z</time>
      </trkpt>
      <trkpt lat="47.44207" lon="5.91464">
        <ele>374</ele>
        <time>2023-03-15T22:44:08.197Z</time>
      </trkpt>
      <trkpt lat="47.44145" lon="5.9141">
        <ele>374</ele>
        <time>2023-03-15T22:44:25.264Z</time>
      </trkpt>
      <trkpt lat="47.44081" lon="5.91351">
        <ele>375</ele>
        <time>2023-03-15T22:44:42.432Z</time>
      </trkpt>
      <trkpt lat="47.44033" lon="5.91325">
        <ele>376</ele>
        <time>2023-03-15T22:44:59.668Z</time>
      </trkpt>
      <trkpt lat="47.43993" lon="5.91287">
        <ele>377</ele>
        <time>2023-03-15T22:45:16.967Z</time>
      </trkpt>
      <trkpt lat="47.43956" lon="5.91268">
        <ele>378</ele>
        <time>2023-03-15T22:45:34.319Z</time>
      </trkpt>
      <trkpt lat="47.43891" lon="5.91217">
        <ele>379</ele>
        <time>2023-03-15T22:45:51.770Z</time>
      </trkpt>
      <trkpt lat="47.43859" lon="5.9119">
        <ele>380</ele>
        <time>2023-03-15T22:46:09.269Z</time>
      </trkpt>
      <trkpt lat="47.43854" lon="5.91165">
        <ele>381</ele>
        <time>2023-03-15T22:46:26.792Z</time>
      </trkpt>
      <trkpt lat="47.43851" lon="5.9114">
        <ele>381</ele>
        <time>2023-03-15T22:46:44.337Z</time>
      </trkpt>
      <trkpt lat="47.43844" lon="5.91131">
        <ele>382</ele>
        <time>2023-03-15T22:47:01.895Z</time>
      </trkpt>
      <trkpt lat="47.43831" lon="5.91125">
        <ele>382</ele>
        <time>2023-03-15T22:47:19.471Z</time>
      </trkpt>
      <trkpt lat="47.43816" lon="5.91128">
        <ele>383</ele>
        <time>2023-03-15T22:47:37.068Z</time>
      </trkpt>
      <trkpt lat="47.43797" lon="5.9114">
        <ele>383</ele>
        <time>2023-03-15T22:47:54.692Z</time>
      </trkpt>
      <trkpt lat="47.43722" lon="5.91069">
        <ele>382</ele>
        <time>2023-03-15T22:48:12.434Z</time>
      </trkpt>
      <trkpt lat="47.43657" lon="5.91006">
        <ele>381</ele>
        <time>2023-03-15T22:48:30.281Z</time>
      </trkpt>
      <trkpt lat="47.43591" lon="5.90932">
        <ele>379</ele>
        <time>2023-03-15T22:48:48.238Z</time>
      </trkpt>
      <trkpt lat="47.43554" lon="5.90895">
        <ele>377</ele>
        <time>2023-03-15T22:49:06.255Z</time>
      </trkpt>
      <trkpt lat="47.43514" lon="5.90859">
        <ele>373</ele>
        <time>2023-03-15T22:49:24.335Z</time>
      </trkpt>
      <trkpt lat="47.43484" lon="5.90835">
        <ele>370</ele>
        <time>2023-03-15T22:49:42.460Z</time>
      </trkpt>
      <trkpt lat="47.43469" lon="5.90802">
        <ele>366</ele>
        <time>2023-03-15T22:50:00.621Z</time>
      </trkpt>
      <trkpt lat="47.43465" lon="5.90785">
        <ele>361</ele>
        <time>2023-03-15T22:50:18.798Z</time>
      </trkpt>
      <trkpt lat="47.43471" lon="5.90764">
        <ele>356</ele>
        <time>2023-03-15T22:50:36.996Z</time>
      </trkpt>
      <trkpt lat="47.4348" lon="5.90724">
        <ele>350</ele>
        <time>2023-03-15T22:50:55.232Z</time>
      </trkpt>
      <trkpt lat="47.4352" lon="5.90641">
        <ele>344</ele>
        <time>2023-03-15T22:51:13.561Z</time>
      </trkpt>
      <trkpt lat="47.43538" lon="5.9061">
        <ele>338</ele>
        <time>2023-03-15T22:51:31.926Z</time>
      </trkpt>
      <trkpt lat="47.43587" lon="5.9058">
        <ele>332</ele>
        <time>2023-03-15T22:51:50.361Z</time>
      </trkpt>
      <trkpt lat="47.43632" lon="5.90555">
        <ele>326</ele>
        <time>2023-03-15T22:52:08.861Z</time>
      </trkpt>
      <trkpt lat="47.43694" lon="5.90472">
        <ele>320</ele>
        <time>2023-03-15T22:52:27.472Z</time>
      </trkpt>
      <trkpt lat="47.43731" lon="5.9042">
        <ele>315</ele>
        <time>2023-03-15T22:52:46.152Z</time>
      </trkpt>
      <trkpt lat="47.43753" lon="5.90356">
        <ele>311</ele>
        <time>2023-03-15T22:53:04.897Z</time>
      </trkpt>
      <trkpt lat="47.43724" lon="5.90319">
        <ele>307</ele>
        <time>2023-03-15T22:53:23.694Z</time>
      </trkpt>
      <trkpt lat="47.43467" lon="5.89896">
        <ele>300</ele>
        <time>2023-03-15T22:53:43.005Z</time>
      </trkpt>
      <trkpt lat="47.4345" lon="5.89895">
        <ele>298</ele>
        <time>2023-03-15T22:54:02.338Z</time>
      </trkpt>
      <trkpt lat="47.43401" lon="5.89883">
        <ele>296</ele>
        <time>2023-03-15T22:54:21.738Z</time>
      </trkpt>
      <trkpt lat="47.4336" lon="5.89853">
        <ele>295</ele>
        <time>2023-03-15T22:54:41.200Z</time>
      </trkpt>
      <trkpt lat="47.43308" lon="5.89836">
        <ele>295</ele>
        <time>2023-03-15T22:55:00.732Z</time>
      </trkpt>
      <trkpt lat="47.43268" lon="5.89803">
        <ele>296</ele>
        <time>2023-03-15T22:55:20.325Z</time>
      </trkpt>
      <trkpt lat="47.43221" lon="5.89766">
        <ele>299</ele>
        <time>2023-03-15T22:55:39.989Z</time>
      </trkpt>
      <trkpt lat="47.43189" lon="5.89729">
        <ele>301</ele>
        <time>2023-03-15T22:55:59.708Z</time>
      </trkpt>
      <trkpt lat="47.43171" lon="5.89712">
        <ele>304</ele>
        <time>2023-03-15T22:56:19.455Z</time>
      </trkpt>
      <trkpt lat="47.43146" lon="5.89703">
        <ele>307</ele>
        <time>2023-03-15T22:56:39.237Z</time>
      </trkpt>
      <trkpt lat="47.43128" lon="5.89689">
        <ele>311</ele>
        <time>2023-03-15T22:56:59.046Z</time>
      </trkpt>
      <trkpt lat="47.43102" lon="5.89677">
        <ele>315</ele>
        <time>2023-03-15T22:57:18.890Z</time>
      </trkpt>
      <trkpt lat="47.43076" lon="5.8968">
        <ele>319</ele>
        <time>2023-03-15T22:57:38.769Z</time>
      </trkpt>
      <trkpt lat="47.43052" lon="5.89685">
        <ele>323</ele>
        <time>2023-03-15T22:57:58.680Z</time>
      </trkpt>
      <trkpt lat="47.43021" lon="5.89674">
        <ele>328</ele>
        <time>2023-03-15T22:58:18.634Z</time>
      </trkpt>
      <trkpt lat="47.43003" lon="5.89662">
        <ele>332</ele>
        <time>2023-03-15T22:58:38.614Z</time>
      </trkpt>
      <trkpt lat="47.42969" lon="5.89617">
        <ele>336</ele>
        <time>2023-03-15T22:58:58.656Z</time>
      </trkpt>
      <trkpt lat="47.4292" lon="5.89595">
        <ele>340</ele>
        <time>2023-03-15T22:59:18.766Z</time>
      </trkpt>
      <trkpt lat="47.42891" lon="5.89571">
        <ele>344</ele>
        <time>2023-03-15T22:59:38.920Z</time>
      </trkpt>
      <trkpt lat="47.42816" lon="5.89511">
        <ele>347</ele>
        <time>2023-03-15T22:59:59.188Z</time>
      </trkpt>
      <trkpt lat="47.42762" lon="5.89472">
        <ele>350</ele>
        <time>2023-03-15T23:00:19.537Z</time>
      </trkpt>
      <trkpt lat="47.42704" lon="5.8945">
        <ele>353</ele>
        <time>2023-03-15T23:00:39.965Z</time>
      </trkpt>
      <trkpt lat="47.42673" lon="5.89447">
        <ele>355</ele>
        <time>2023-03-15T23:01:00.434Z</time>
      </trkpt>
      <trkpt lat="47.42631" lon="5.89445">
        <ele>356</ele>
        <time>2023-03-15T23:01:20.959Z</time>
      </trkpt>
      <trkpt lat="47.42602" lon="5.89436">
        <ele>358</ele>
        <time>2023-03-15T23:01:41.524Z</time>
      </trkpt>
      <trkpt lat="47.42557" lon="5.89408">
        <ele>359</ele>
        <time>2023-03-15T23:02:02.155Z</time>
      </trkpt>
      <trkpt lat="47.42519" lon="5.89369">
        <ele>360</ele>
        <time>2023-03-15T23:02:22.847Z</time>
      </trkpt>
      <trkpt lat="47.42476" lon="5.89323">
        <ele>361</ele>
        <time>2023-03-15T23:02:43.609Z</time>
      </trkpt>
      <trkpt lat="47.42465" lon="5.89323">
        <ele>361</ele>
        <time>2023-03-15T23:03:04.387Z</time>
      </trkpt>
      <trkpt lat="47.4244" lon="5.89324">
        <ele>360</ele>
        <time>2023-03-15T23:03:25.198Z</time>
      </trkpt>
      <trkpt lat="47.42431" lon="5.89321">
        <ele>360</ele>
        <time>2023-03-15T23:03:46.021Z</time>
      </trkpt>
      <trkpt lat="47.42416" lon="5.89294">
        <ele>359</ele>
        <time>2023-03-15T23:04:06.876Z</time>
      </trkpt>
      <trkpt lat="47.42363" lon="5.89245">
        <ele>357</ele>
        <time>2023-03-15T23:04:27.814Z</time>
      </trkpt>
      <trkpt lat="47.42306" lon="5.89208">
        <ele>354</ele>
        <time>2023-03-15T23:04:48.835Z</time>
      </trkpt>
      <trkpt lat="47.42285" lon="5.89213">
        <ele>352</ele>
        <time>2023-03-15T23:05:09.885Z</time>
      </trkpt>
      <trkpt lat="47.42271" lon="5.89195">
        <ele>350</ele>
        <time>2023-03-15T23:05:30.960Z</time>
      </trkpt>
      <trkpt lat="47.42248" lon="5.89163">
        <ele>347</ele>
        <time>2023-03-15T23:05:52.077Z</time>
      </trkpt>
      <trkpt lat="47.42211" lon="5.89126">
        <ele>345</ele>
        <time>2023-03-15T23:06:13.253Z</time>
      </trkpt>
      <trkpt lat="47.42209" lon="5.89111">
        <ele>343</ele>
        <time>2023-03-15T23:06:34.444Z</time>
      </trkpt>
      <trkpt lat="47.4223" lon="5.89054">
        <ele>340</ele>
        <time>2023-03-15T23:06:55.693Z</time>
      </trkpt>
      <trkpt lat="47.42251" lon="5.88939">
        <ele>338</ele>
        <time>2023-03-15T23:07:17.051Z</time>
      </trkpt>
      <trkpt lat="47.42264" lon="5.88831">
        <ele>336</ele>
        <time>2023-03-15T23:07:38.507Z</time>
      </trkpt>
      <trkpt lat="47.42301" lon="5.88702">
        <ele>335</ele>
        <time>2023-03-15T23:08:00.090Z</time>
      </trkpt>
      <trkpt lat="47.42309" lon="5.88644">
        <ele>334</ele>
        <time>2023-03-15T23:08:21.726Z</time>
      </trkpt>
      <trkpt lat="47.42296" lon="5.88566">
        <ele>335</ele>
        <time>2023-03-15T23:08:43.435Z</time>
      </trkpt>
      <trkpt lat="47.42296" lon="5.88547">
        <ele>336</ele>
        <time>2023-03-15T23:09:05.162Z</time>
      </trkpt>
      <trkpt lat="47.42245" lon="5.8842">
        <ele>338</ele>
        <time>2023-03-15T23:09:27.022Z</time>
      </trkpt>
      <trkpt lat="47.42226" lon="5.88343">
        <ele>340</ele>
        <time>2023-03-15T23:09:48.957Z</time>
      </trkpt>
      <trkpt lat="47.42216" lon="5.88256">
        <ele>343</ele>
        <time>2023-03-15T23:10:10.971Z</time>
      </trkpt>
      <trkpt lat="47.42196" lon="5.88188">
        <ele>347</ele>
        <time>2023-03-15T23:10:33.052Z</time>
      </trkpt>
      <trkpt lat="47.42184" lon="5.88134">
        <ele>350</ele>
        <time>2023-03-15T23:10:55.185Z</time>
      </trkpt>
      <trkpt lat="47.42176" lon="5.88106">
        <ele>354</ele>
        <time>2023-03-15T23:11:17.346Z</time>
      </trkpt>
      <trkpt lat="47.42072" lon="5.8799">
        <ele>358</ele>
        <time>2023-03-15T23:11:39.680Z</time>
      </trkpt>
      <trkpt lat="47.42002" lon="5.879">
        <ele>363</ele>
        <time>2023-03-15T23:12:02.139Z</time>
      </trkpt>
      <trkpt lat="47.4193" lon="5.87769">
        <ele>368</ele>
        <time>2023-03-15T23:12:24.750Z</time>
      </trkpt>
      <trkpt lat="47.41919" lon="5.87734">
        <ele>372</ele>
        <time>2023-03-15T23:12:47.396Z</time>
      </trkpt>
      <trkpt lat="47.41918" lon="5.87701">
        <ele>376</ele>
        <time>2023-03-15T23:13:10.072Z</time>
      </trkpt>
      <trkpt lat="47.4192" lon="5.87662">
        <ele>379</ele>
        <time>2023-03-15T23:13:32.783Z</time>
      </trkpt>
      <trkpt lat="47.41922" lon="5.87651">
        <ele>383</ele>
        <time>2023-03-15T23:13:55.504Z</time>
      </trkpt>
      <trkpt lat="47.4192" lon="5.87645">
        <ele>385</ele>
        <time>2023-03-15T23:14:18.231Z</time>
      </trkpt>
      <trkpt lat="47.41913" lon="5.87644">
        <ele>388</ele>
        <time>2023-03-15T23:14:40.968Z</time>
      </trkpt>
      <trkpt lat="47.41868" lon="5.87565">
        <ele>390</ele>
        <time>2023-03-15T23:15:03.798Z</time>
      </trkpt>
      <trkpt lat="47.41848" lon="5.87551">
        <ele>392</ele>
        <time>2023-03-15T23:15:26.658Z</time>
      </trkpt>
      <trkpt lat="47.41807" lon="5.87508">
        <ele>394</ele>
        <time>2023-03-15T23:15:49.585Z</time>
      </trkpt>
      <trkpt lat="47.41771" lon="5.87469">
        <ele>395</ele>
        <time>2023-03-15T23:16:12.572Z</time>
      </trkpt>
      <trkpt lat="47.41734" lon="5.87422">
        <ele>396</ele>
        <time>2023-03-15T23:16:35.624Z</time>
      </trkpt>
      <trkpt lat="47.41666" lon="5.87342">
        <ele>396</ele>
        <time>2023-03-15T23:16:58.792Z</time>
      </trkpt>
      <trkpt lat="47.41649" lon="5.87357">
        <ele>396</ele>
        <time>2023-03-15T23:17:21.986Z</time>
      </trkpt>
      <trkpt lat="47.4163" lon="5.8736">
        <ele>396</ele>
        <time>2023-03-15T23:17:45.206Z</time>
      </trkpt>
      <trkpt lat="47.41604" lon="5.87342">
        <ele>395</ele>
        <time>2023-03-15T23:18:08.464Z</time>
      </trkpt>
      <trkpt lat="47.41573" lon="5.87312">
        <ele>394</ele>
        <time>2023-03-15T23:18:31.772Z</time>
      </trkpt>
      <trkpt lat="47.41547" lon="5.87265">
        <ele>393</ele>
        <time>2023-03-15T23:18:55.135Z</time>
      </trkpt>
      <trkpt lat="47.41528" lon="5.87238">
        <ele>391</ele>
        <time>2023-03-15T23:19:18.533Z</time>
      </trkpt>
      <trkpt lat="47.41501" lon="5.87219">
        <ele>389</ele>
        <time>2023-03-15T23:19:41.971Z</time>
      </trkpt>
      <trkpt lat="47.41481" lon="5.87197">
        <ele>386</ele>
        <time>2023-03-15T23:20:05.442Z</time>
      </trkpt>
      <trkpt lat="47.41456" lon="5.87151">
        <ele>383</ele>
        <time>2023-03-15T23:20:28.967Z</time>
      </trkpt>
      <trkpt lat="47.41384" lon="5.87083">
        <ele>380</ele>
        <time>2023-03-15T23:20:52.607Z</time>
      </trkpt>
      <trkpt lat="47.41338" lon="5.87056">
        <ele>377</ele>
        <time>2023-03-15T23:21:16.312Z</time>
      </trkpt>
      <trkpt lat="47.41301" lon="5.87036">
        <ele>373</ele>
        <time>2023-03-15T23:21:40.070Z</time>
      </trkpt>
      <trkpt lat="47.41255" lon="5.87005">
        <ele>369</ele>
        <time>2023-03-15T23:22:03.895Z</time>
      </trkpt>
      <trkpt lat="47.41204" lon="5.86964">
        <ele>365</ele>
        <time>2023-03-15T23:22:27.797Z</time>
      </trkpt>
      <trkpt lat="47.41178" lon="5.86934">
        <ele>361</ele>
        <time>2023-03-15T23:22:51.744Z</time>
      </trkpt>
      <trkpt lat="47.41152" lon="5.86918">
        <ele>357</ele>
        <time>2023-03-15T23:23:15.729Z</time>
      </trkpt>
      <trkpt lat="47.41095" lon="5.86876">
        <ele>352</ele>
        <time>2023-03-15T23:23:39.799Z</time>
      </trkpt>
      <trkpt lat="47.41065" lon="5.86861">
        <ele>348</ele>
        <time>2023-03-15T23:24:03.910Z</time>
      </trkpt>
      <trkpt lat="47.41034" lon="5.86832">
        <ele>343</ele>
        <time>2023-03-15T23:24:28.070Z</time>
      </trkpt>
      <trkpt lat="47.41018" lon="5.86803">
        <ele>339</ele>
        <time>2023-03-15T23:24:52.265Z</time>
      </trkpt>
      <trkpt lat="47.41012" lon="5.86775">
        <ele>335</ele>
        <time>2023-03-15T23:25:16.486Z</time>
      </trkpt>
      <trkpt lat="47.41008" lon="5.86728">
        <ele>330</ele>
        <time>2023-03-15T23:25:40.750Z</time>
      </trkpt>
      <trkpt lat="47.41012" lon="5.86709">
        <ele>326</ele>
        <time>2023-03-15T23:26:05.032Z</time>
      </trkpt>
      <trkpt lat="47.41024" lon="5.86625">
        <ele>321</ele>
        <time>2023-03-15T23:26:29.392Z</time>
      </trkpt>
      <trkpt lat="47.41068" lon="5.86575">
        <ele>317</ele>
        <time>2023-03-15T23:26:53.826Z</time>
      </trkpt>
      <trkpt lat="47.41099" lon="5.86538">
        <ele>313</ele>
        <time>2023-03-15T23:27:18.313Z</time>
      </trkpt>
      <trkpt lat="47.41189" lon="5.86497">
        <ele>308</ele>
        <time>2023-03-15T23:27:42.926Z</time>
      </trkpt>
      <trkpt lat="47.41226" lon="5.86452">
        <ele>304</ele>
        <time>2023-03-15T23:28:07.603Z</time>
      </trkpt>
      <trkpt lat="47.41261" lon="5.86425">
        <ele>300</ele>
        <time>2023-03-15T23:28:32.333Z</time>
      </trkpt>
      <trkpt lat="47.41297" lon="5.86349">
        <ele>296</ele>
        <time>2023-03-15T23:28:57.147Z</time>
      </trkpt>
      <trkpt lat="47.41363" lon="5.86223">
        <ele>293</ele>
        <time>2023-03-15T23:29:22.105Z</time>
      </trkpt>
      <trkpt lat="47.41413" lon="5.8616">
        <ele>291</ele>
        <time>2023-03-15T23:29:47.151Z</time>
      </trkpt>
      <trkpt lat="47.41431" lon="5.8614">
        <ele>288</ele>
        <time>2023-03-15T23:30:12.226Z</time>
      </trkpt>
      <trkpt lat="47.41474" lon="5.86054">
        <ele>286</ele>
        <time>2023-03-15T23:30:37.398Z</time>
      </trkpt>
      <trkpt lat="47.41541" lon="5.85955">
        <ele>283</ele>
        <time>2023-03-15T23:31:02.697Z</time>
      </trkpt>
      <trkpt lat="47.41564" lon="5.85912">
        <ele>281</ele>
        <time>2023-03-15T23:31:28.045Z</time>
      </trkpt>
      <trkpt lat="47.41577" lon="5.85836">
        <ele>279</ele>
        <time>2023-03-15T23:31:53.464Z</time>
      </trkpt>
      <trkpt lat="47.41578" lon="5.85762">
        <ele>277</ele>
        <time>2023-03-15T23:32:18.950Z</time>
      </trkpt>
      <trkpt lat="47.41588" lon="5.85699">
        <ele>275</ele>
        <time>2023-03-15T23:32:44.495Z</time>
      </trkpt>
      <trkpt lat="47.41614" lon="5.85605">
        <ele>272</ele>
        <time>2023-03-15T23:33:10.133Z</time>
      </trkpt>
      <trkpt lat="47.41649" lon="5.8554">
        <ele>269</ele>
        <time>2023-03-15T23:33:35.846Z</time>
      </trkpt>
      <trkpt lat="47.41693" lon="5.85479">
        <ele>267</ele>
        <time>2023-03-15T23:34:01.639Z</time>
      </trkpt>
      <trkpt lat="47.41726" lon="5.85424">
        <ele>263</ele>
        <time>2023-03-15T23:34:27.499Z</time>
      </trkpt>
      <trkpt lat="47.41756" lon="5.85396">
        <ele>260</ele>
        <time>2023-03-15T23:34:53.406Z</time>
      </trkpt>
      <trkpt lat="47.41807" lon="5.85368">
        <ele>257</ele>
        <time>2023-03-15T23:35:19.386Z</time>
      </trkpt>
      <trkpt lat="47.41854" lon="5.8536">
        <ele>254</ele>
        <time>2023-03-15T23:35:45.428Z</time>
      </trkpt>
      <trkpt lat="47.41889" lon="5.85335">
        <ele>251</ele>
        <time>2023-03-15T23:36:11.522Z</time>
      </trkpt>
      <trkpt lat="47.41913" lon="5.85282">
        <ele>248</ele>
        <time>2023-03-15T23:36:37.675Z</time>
      </trkpt>
      <trkpt lat="47.41944" lon="5.85202">
        <ele>245</ele>
        <time>2023-03-15T23:37:03.911Z</time>
      </trkpt>
      <trkpt lat="47.41966" lon="5.85175">
        <ele>242</ele>
        <time>2023-03-15T23:37:30.185Z</time>
      </trkpt>
      <trkpt lat="47.42008" lon="5.85189">
        <ele>240</ele>
        <time>2023-03-15T23:37:56.517Z</time>
      </trkpt>
      <trkpt lat="47.42037" lon="5.85181">
        <ele>239</ele>
        <time>2023-03-15T23:38:22.888Z</time>
      </trkpt>
      <trkpt lat="47.42059" lon="5.85159">
        <ele>239</ele>
        <time>2023-03-15T23:38:49.295Z</time>
      </trkpt>
      <trkpt lat="47.42087" lon="5.85104">
        <ele>239</ele>
        <time>2023-03-15T23:39:15.764Z</time>
      </trkpt>
      <trkpt lat="47.4213" lon="5.85004">
        <ele>240</ele>
        <time>2023-03-15T23:39:42.340Z</time>
      </trkpt>
      <trkpt lat="47.42167" lon="5.84872">
        <ele>241</ele>
        <time>2023-03-15T23:40:09.045Z</time>
      </trkpt>
      <trkpt lat="47.42201" lon="5.84777">
        <ele>241</ele>
        <time>2023-03-15T23:40:35.847Z</time>
      </trkpt>
      <trkpt lat="47.42161" lon="5.84743">
        <ele>242</ele>
        <time>2023-03-15T23:41:02.711Z</time>
      </trkpt>
      <trkpt lat="47.42138" lon="5.84727">
        <ele>242</ele>
        <time>2023-03-15T23:41:29.609Z</time>
      </trkpt>
      <trkpt lat="47.42116" lon="5.84705">
        <ele>241</ele>
        <time>2023-03-15T23:41:56.543Z</time>
      </trkpt>
      <trkpt lat="47.42104" lon="5.84674">
        <ele>241</ele>
        <time>2023-03-15T23:42:23.509Z</time>
      </trkpt>
      <trkpt lat="47.42099" lon="5.84643">
        <ele>240</ele>
        <time>2023-03-15T23:42:50.504Z</time>
      </trkpt>
      <trkpt lat="47.4211" lon="5.84607">
        <ele>238</ele>
        <time>2023-03-15T23:43:17.535Z</time>
      </trkpt>
      <trkpt lat="47.4213" lon="5.84576">
        <ele>237</ele>
        <time>2023-03-15T23:43:44.604Z</time>
      </trkpt>
      <trkpt lat="47.42149" lon="5.84537">
        <ele>235</ele>
        <time>2023-03-15T23:44:11.717Z</time>
      </trkpt>
      <trkpt lat="47.42178" lon="5.84512">
        <ele>233</ele>
        <time>2023-03-15T23:44:38.875Z</time>
      </trkpt>
      <trkpt lat="47.42217" lon="5.84484">
        <ele>232</ele>
        <time>2023-03-15T23:45:06.090Z</time>
      </trkpt>
      <trkpt lat="47.42244" lon="5.84457">
        <ele>230</ele>
        <time>2023-03-15T23:45:33.349Z</time>
      </trkpt>
      <trkpt lat="47.42264" lon="5.84437">
        <ele>227</ele>
        <time>2023-03-15T23:46:00.640Z</time>
      </trkpt>
      <trkpt lat="47.42284" lon="5.84388">
        <ele>225</ele>
        <time>2023-03-15T23:46:27.983Z</time>
      </trkpt>
      <trkpt lat="47.42303" lon="5.84358">
        <ele>223</ele>
        <time>2023-03-15T23:46:55.363Z</time>
      </trkpt>
      <trkpt lat="47.42312" lon="5.84331">
        <ele>221</ele>
        <time>2023-03-15T23:47:22.771Z</time>
      </trkpt>
      <trkpt lat="47.42346" lon="5.84247">
        <ele>220</ele>
        <time>2023-03-15T23:47:50.267Z</time>
      </trkpt>
      <trkpt lat="47.42293" lon="5.84167">
        <ele>219</ele>
        <time>2023-03-15T23:48:17.864Z</time>
      </trkpt>
      <trkpt lat="47.4227" lon="5.84096">
        <ele>219</ele>
        <time>2023-03-15T23:48:45.533Z</time>
      </trkpt>
      <trkpt lat="47.42259" lon="5.84035">
        <ele>220</ele>
        <time>2023-03-15T23:49:13.259Z</time>
      </trkpt>
      <trkpt lat="47.42264" lon="5.83959">
        <ele>221</ele>
        <time>2023-03-15T23:49:41.053Z</time>
      </trkpt>
      <trkpt lat="47.42259" lon="5.83922">
        <ele>223</ele>
        <time>2023-03-15T23:50:08.882Z</time>
      </trkpt>
      <trkpt lat="47.42182" lon="5.83792">
        <ele>226</ele>
        <time>2023-03-15T23:50:36.867Z</time>
      </trkpt>
      <trkpt lat="47.42074" lon="5.83644">
        <ele>229</ele>
        <time>2023-03-15T23:51:05.049Z</time>
      </trkpt>
      <trkpt lat="47.42041" lon="5.83673">
        <ele>233</ele>
        <time>2023-03-15T23:51:33.282Z</time>
      </trkpt>
      <trkpt lat="47.42011" lon="5.8371">
        <ele>237</ele>
        <time>2023-03-15T23:52:01.567Z</time>
      </trkpt>
      <trkpt lat="47.41994" lon="5.83733">
        <ele>241</ele>
        <time>2023-03-15T23:52:29.883Z</time>
      </trkpt>
      <trkpt lat="47.41973" lon="5.83745">
        <ele>244</ele>
        <time>2023-03-15T23:52:58.230Z</time>
      </trkpt>
      <trkpt lat="47.41886" lon="5.8373">
        <ele>248</ele>
        <time>2023-03-15T23:53:26.693Z</time>
      </trkpt>
      <trkpt lat="47.41839" lon="5.83743">
        <ele>252</ele>
        <time>2023-03-15T23:53:55.221Z</time>
      </trkpt>
      <trkpt lat="47.41805" lon="5.83741">
        <ele>255</ele>
        <time>2023-03-15T23:54:23.794Z</time>
      </trkpt>
      <trkpt lat="47.41765" lon="5.83708">
        <ele>257</ele>
        <time>2023-03-15T23:54:52.428Z</time>
      </trkpt>
      <trkpt lat="47.41701" lon="5.83633">
        <ele>260</ele>
        <time>2023-03-15T23:55:21.172Z</time>
      </trkpt>
      <trkpt lat="47.41669" lon="5.83605">
        <ele>261</ele>
        <time>2023-03-15T23:55:49.965Z</time>
      </trkpt>
      <trkpt lat="47.41624" lon="5.83535">
        <ele>262</ele>
        <time>2023-03-15T23:56:18.845Z</time>
      </trkpt>
      <trkpt lat="47.41591" lon="5.83467">
        <ele>263</ele>
        <time>2023-03-15T23:56:47.801Z</time>
      </trkpt>
      <trkpt lat="47.41551" lon="5.83378">
        <ele>262</ele>
        <time>2023-03-15T23:57:16.853Z</time>
      </trkpt>
      <trkpt lat="47.41431" lon="5.83204">
        <ele>262</ele>
        <time>2023-03-15T23:57:46.131Z</time>
      </trkpt>
      <trkpt lat="47.41391" lon="5.83132">
        <ele>261</ele>
        <time>2023-03-15T23:58:15.492Z</time>
      </trkpt>
      <trkpt lat="47.41354" lon="5.83047">
        <ele>260</ele>
        <time>2023-03-15T23:58:44.946Z</time>
      </trkpt>
      <trkpt lat="47.41315" lon="5.82978">
        <ele>258</ele>
        <time>2023-03-15T23:59:14.480Z</time>
      </trkpt>
      <trkpt lat="47.41343" lon="5.82916">
        <ele>255</ele>
        <time>2023-03-15T23:59:44.082Z</time>
      </trkpt>
      <trkpt lat="47.41214" lon="5.82713">
        <ele>253</ele>
        <time>2023-03-16T00:00:13.936Z</time>
      </trkpt>
      <trkpt lat="47.41121" lon="5.82541">
        <ele>251</ele>
        <time>2023-03-16T00:00:43.988Z</time>
      </trkpt>
      <trkpt lat="47.41029" lon="5.82282">
        <ele>248</ele>
        <time>2023-03-16T00:01:14.306Z</time>
      </trkpt>
      <trkpt lat="47.4091" lon="5.82047">
        <ele>246</ele>
        <time>2023-03-16T00:01:44.889Z</time>
      </trkpt>
      <trkpt lat="47.40825" lon="5.8191">
        <ele>244</ele>
        <time>2023-03-16T00:02:15.640Z</time>
      </trkpt>
      <trkpt lat="47.40786" lon="5.81821">
        <ele>243</ele>
        <time>2023-03-16T00:02:46.487Z</time>
      </trkpt>
      <trkpt lat="47.40659" lon="5.81457">
        <ele>240</ele>
        <time>2023-03-16T00:03:17.704Z</time>
      </trkpt>
      <trkpt lat="47.40644" lon="5.81397">
        <ele>238</ele>
        <time>2023-03-16T00:03:48.980Z</time>
      </trkpt>
      <trkpt lat="47.40613" lon="5.81322">
        <ele>237</ele>
        <time>2023-03-16T00:04:20.335Z</time>
      </trkpt>
    </trkseg>
  </trk>
</gpx>